sensor_id;sensor_type;location;lat;lon;timestamp;pressure;altitude;pressure_sealevel;temperature;humidity
9740;BME280;4909;42.680;26.324;2023-06-04T00:02:14;98701.31;;;20.10;100.00
9740;BME280;4909;42.680;26.324;2023-06-04T00:04:43;98704.91;;;19.99;100.00
9740;BME280;4909;42.680;26.324;2023-06-04T00:07:09;98710.28;;;19.99;100.00
9740;BME280;4909;42.680;26.324;2023-06-04T00:09:36;98700.91;;;20.14;100.00
9740;BME280;4909;42.680;26.324;2023-06-04T00:12:03;98709.72;;;20.27;100.00
9740;BME280;4909;42.680;26.324;2023-06-04T00:14:30;98699.94;;;20.26;100.00
9740;BME280;4909;42.680;26.324;2023-06-04T00:16:57;98711.41;;;20.28;100.00
9740;BME280;4909;42.680;26.324;2023-06-04T00:19:24;98714.88;;;20.30;100.00
9740;BME280;4909;42.680;26.324;2023-06-04T00:21:52;98715.13;;;20.27;100.00
9740;BME280;4909;42.680;26.324;2023-06-04T00:24:19;98698.44;;;20.33;100.00
9740;BME280;4909;42.680;26.324;2023-06-04T00:26:46;98705.59;;;20.23;100.00
9740;BME280;4909;42.680;26.324;2023-06-04T00:29:12;98704.66;;;20.02;100.00
9740;BME280;4909;42.680;26.324;2023-06-04T00:31:39;98702.91;;;20.01;100.00
9740;BME280;4909;42.680;26.324;2023-06-04T00:34:06;98704.66;;;20.02;100.00
9740;BME280;4909;42.680;26.324;2023-06-04T00:36:33;98707.22;;;19.92;100.00
9740;BME280;4909;42.680;26.324;2023-06-04T00:39:01;98706.94;;;20.18;100.00
9740;BME280;4909;42.680;26.324;2023-06-04T00:41:27;98701.16;;;20.33;100.00
9740;BME280;4909;42.680;26.324;2023-06-04T00:43:54;98704.47;;;20.37;100.00
9740;BME280;4909;42.680;26.324;2023-06-04T00:46:23;98706.63;;;20.43;100.00
9740;BME280;4909;42.680;26.324;2023-06-04T00:48:51;98684.72;;;20.25;100.00
9740;BME280;4909;42.680;26.324;2023-06-04T00:51:18;98709.41;;;20.53;100.00
9740;BME280;4909;42.680;26.324;2023-06-04T00:53:45;98705.03;;;20.52;100.00
9740;BME280;4909;42.680;26.324;2023-06-04T00:56:14;98714.81;;;20.53;100.00
9740;BME280;4909;42.680;26.324;2023-06-04T00:58:40;98723.75;;;20.53;100.00
9740;BME280;4909;42.680;26.324;2023-06-04T01:01:12;98715.72;;;20.42;100.00
9740;BME280;4909;42.680;26.324;2023-06-04T01:03:44;98714.13;;;20.39;100.00
9740;BME280;4909;42.680;26.324;2023-06-04T01:06:18;98697.09;;;20.39;100.00
9740;BME280;4909;42.680;26.324;2023-06-04T01:08:49;98722.63;;;20.67;100.00
9740;BME280;4909;42.680;26.324;2023-06-04T01:11:32;98712.34;;;20.61;100.00
9740;BME280;4909;42.680;26.324;2023-06-04T01:13:59;98723.16;;;20.50;100.00
9740;BME280;4909;42.680;26.324;2023-06-04T01:16:27;98711.94;;;20.22;100.00
9740;BME280;4909;42.680;26.324;2023-06-04T01:18:56;98733.13;;;20.27;100.00
9740;BME280;4909;42.680;26.324;2023-06-04T01:21:26;98729.09;;;20.32;100.00
9740;BME280;4909;42.680;26.324;2023-06-04T01:23:59;98735.97;;;20.36;100.00
9740;BME280;4909;42.680;26.324;2023-06-04T01:26:28;98719.78;;;20.36;100.00
9740;BME280;4909;42.680;26.324;2023-06-04T01:28:57;98742.97;;;20.60;100.00
9740;BME280;4909;42.680;26.324;2023-06-04T01:31:25;98721.22;;;20.41;100.00
9740;BME280;4909;42.680;26.324;2023-06-04T01:33:53;98745.56;;;20.61;100.00
9740;BME280;4909;42.680;26.324;2023-06-04T01:36:20;98746.66;;;20.59;100.00
9740;BME280;4909;42.680;26.324;2023-06-04T01:38:47;98744.63;;;20.51;100.00
9740;BME280;4909;42.680;26.324;2023-06-04T01:41:13;98739.41;;;20.16;100.00
9740;BME280;4909;42.680;26.324;2023-06-04T01:43:40;98730.81;;;20.22;100.00
9740;BME280;4909;42.680;26.324;2023-06-04T01:46:08;98745.38;;;20.42;100.00
9740;BME280;4909;42.680;26.324;2023-06-04T01:48:35;98738.88;;;20.33;100.00
9740;BME280;4909;42.680;26.324;2023-06-04T01:51:02;98745.09;;;20.56;100.00
9740;BME280;4909;42.680;26.324;2023-06-04T01:53:30;98751.03;;;20.71;100.00
9740;BME280;4909;42.680;26.324;2023-06-04T01:55:57;98739.06;;;20.53;100.00
9740;BME280;4909;42.680;26.324;2023-06-04T01:58:24;98745.75;;;20.15;100.00
9740;BME280;4909;42.680;26.324;2023-06-04T02:00:52;98748.22;;;20.18;100.00
9740;BME280;4909;42.680;26.324;2023-06-04T02:03:21;98736.44;;;20.19;100.00
9740;BME280;4909;42.680;26.324;2023-06-04T02:05:48;98747.25;;;20.30;100.00
9740;BME280;4909;42.680;26.324;2023-06-04T02:08:15;98744.63;;;20.29;100.00
9740;BME280;4909;42.680;26.324;2023-06-04T02:10:45;98748.25;;;19.96;100.00
9740;BME280;4909;42.680;26.324;2023-06-04T02:13:12;98731.59;;;20.02;100.00
9740;BME280;4909;42.680;26.324;2023-06-04T02:15:38;98754.69;;;20.27;100.00
9740;BME280;4909;42.680;26.324;2023-06-04T02:18:14;98731.09;;;20.08;100.00
9740;BME280;4909;42.680;26.324;2023-06-04T02:20:43;98725.94;;;20.05;100.00
9740;BME280;4909;42.680;26.324;2023-06-04T02:23:11;98736.91;;;20.24;100.00
9740;BME280;4909;42.680;26.324;2023-06-04T02:25:37;98744.41;;;20.21;100.00
9740;BME280;4909;42.680;26.324;2023-06-04T02:28:04;98754.81;;;20.36;100.00
9740;BME280;4909;42.680;26.324;2023-06-04T02:30:31;98763.50;;;20.40;100.00
9740;BME280;4909;42.680;26.324;2023-06-04T02:32:58;98757.94;;;20.53;100.00
9740;BME280;4909;42.680;26.324;2023-06-04T02:35:26;98758.94;;;20.52;100.00
9740;BME280;4909;42.680;26.324;2023-06-04T02:37:54;98764.59;;;20.49;100.00
9740;BME280;4909;42.680;26.324;2023-06-04T02:40:23;98764.34;;;20.29;100.00
9740;BME280;4909;42.680;26.324;2023-06-04T02:42:51;98762.53;;;20.41;100.00
9740;BME280;4909;42.680;26.324;2023-06-04T02:45:18;98721.69;;;19.80;100.00
9740;BME280;4909;42.680;26.324;2023-06-04T02:47:45;98764.13;;;20.10;100.00
9740;BME280;4909;42.680;26.324;2023-06-04T02:50:13;98765.97;;;20.21;100.00
9740;BME280;4909;42.680;26.324;2023-06-04T02:52:40;98762.53;;;20.19;100.00
9740;BME280;4909;42.680;26.324;2023-06-04T02:55:09;98776.16;;;20.17;100.00
9740;BME280;4909;42.680;26.324;2023-06-04T02:57:38;98762.53;;;20.19;100.00
9740;BME280;4909;42.680;26.324;2023-06-04T03:00:08;98774.06;;;20.32;100.00
9740;BME280;4909;42.680;26.324;2023-06-04T03:02:39;98766.00;;;20.32;100.00
9740;BME280;4909;42.680;26.324;2023-06-04T03:05:07;98788.16;;;20.35;100.00
9740;BME280;4909;42.680;26.324;2023-06-04T03:07:36;98781.03;;;20.34;100.00
9740;BME280;4909;42.680;26.324;2023-06-04T03:10:03;98786.69;;;20.43;100.00
9740;BME280;4909;42.680;26.324;2023-06-04T03:12:31;98788.75;;;20.39;100.00
9740;BME280;4909;42.680;26.324;2023-06-04T03:14:58;98789.59;;;20.28;100.00
9740;BME280;4909;42.680;26.324;2023-06-04T03:17:26;98789.03;;;20.14;100.00
9740;BME280;4909;42.680;26.324;2023-06-04T03:19:52;98789.25;;;20.11;100.00
9740;BME280;4909;42.680;26.324;2023-06-04T03:22:21;98783.00;;;20.21;100.00
9740;BME280;4909;42.680;26.324;2023-06-04T03:24:48;98783.75;;;20.23;100.00
9740;BME280;4909;42.680;26.324;2023-06-04T03:27:15;98792.53;;;20.25;100.00
9740;BME280;4909;42.680;26.324;2023-06-04T03:29:43;98785.22;;;20.16;100.00
9740;BME280;4909;42.680;26.324;2023-06-04T03:32:11;98778.09;;;20.15;100.00
9740;BME280;4909;42.680;26.324;2023-06-04T03:34:38;98806.53;;;20.30;100.00
9740;BME280;4909;42.680;26.324;2023-06-04T03:37:06;98814.63;;;20.42;100.00
9740;BME280;4909;42.680;26.324;2023-06-04T03:39:32;98813.38;;;20.34;100.00
9740;BME280;4909;42.680;26.324;2023-06-04T03:41:59;98813.25;;;20.25;100.00
9740;BME280;4909;42.680;26.324;2023-06-04T03:44:26;98815.22;;;20.23;100.00
9740;BME280;4909;42.680;26.324;2023-06-04T03:46:54;98815.81;;;20.15;100.00
9740;BME280;4909;42.680;26.324;2023-06-04T03:49:21;98822.59;;;19.99;100.00
9740;BME280;4909;42.680;26.324;2023-06-04T03:51:48;98821.97;;;19.84;100.00
9740;BME280;4909;42.680;26.324;2023-06-04T03:54:15;98821.59;;;20.11;100.00
9740;BME280;4909;42.680;26.324;2023-06-04T03:56:44;98815.81;;;20.15;100.00
9740;BME280;4909;42.680;26.324;2023-06-04T03:59:10;98827.47;;;20.16;100.00
9740;BME280;4909;42.680;26.324;2023-06-04T04:01:37;98835.19;;;19.98;100.00
9740;BME280;4909;42.680;26.324;2023-06-04T04:04:06;98837.25;;;19.94;100.00
9740;BME280;4909;42.680;26.324;2023-06-04T04:06:33;98832.59;;;19.85;100.00
9740;BME280;4909;42.680;26.324;2023-06-04T04:09:02;98800.66;;;19.70;100.00
9740;BME280;4909;42.680;26.324;2023-06-04T04:11:29;98834.09;;;20.01;100.00
9740;BME280;4909;42.680;26.324;2023-06-04T04:13:56;98846.69;;;20.00;100.00
9740;BME280;4909;42.680;26.324;2023-06-04T04:16:23;98833.09;;;19.90;100.00
9740;BME280;4909;42.680;26.324;2023-06-04T04:18:50;98838.59;;;19.67;100.00
9740;BME280;4909;42.680;26.324;2023-06-04T04:21:18;98841.44;;;19.87;100.00
9740;BME280;4909;42.680;26.324;2023-06-04T04:23:46;98829.03;;;19.85;100.00
9740;BME280;4909;42.680;26.324;2023-06-04T04:26:13;98844.25;;;19.75;100.00
9740;BME280;4909;42.680;26.324;2023-06-04T04:28:42;98833.34;;;19.65;100.00
9740;BME280;4909;42.680;26.324;2023-06-04T04:31:08;98850.75;;;19.83;100.00
9740;BME280;4909;42.680;26.324;2023-06-04T04:33:36;98851.84;;;20.03;100.00
9740;BME280;4909;42.680;26.324;2023-06-04T04:36:05;98856.63;;;20.11;100.00
9740;BME280;4909;42.680;26.324;2023-06-04T04:38:36;98861.41;;;19.96;100.00
9740;BME280;4909;42.680;26.324;2023-06-04T04:41:03;98845.47;;;19.82;100.00
9740;BME280;4909;42.680;26.324;2023-06-04T04:43:34;98847.69;;;19.88;100.00
9740;BME280;4909;42.680;26.324;2023-06-04T04:46:01;98854.78;;;20.11;100.00
9740;BME280;4909;42.680;26.324;2023-06-04T04:48:27;98859.22;;;20.23;100.00
9740;BME280;4909;42.680;26.324;2023-06-04T04:50:54;98871.59;;;20.37;100.00
9740;BME280;4909;42.680;26.324;2023-06-04T04:53:21;98869.47;;;19.96;100.00
9740;BME280;4909;42.680;26.324;2023-06-04T04:55:49;98864.28;;;19.71;100.00
9740;BME280;4909;42.680;26.324;2023-06-04T04:58:17;98853.19;;;19.40;100.00
9740;BME280;4909;42.680;26.324;2023-06-04T05:00:44;98875.38;;;19.20;100.00
9740;BME280;4909;42.680;26.324;2023-06-04T05:03:13;98878.63;;;19.13;100.00
9740;BME280;4909;42.680;26.324;2023-06-04T05:05:39;98885.88;;;19.12;100.00
9740;BME280;4909;42.680;26.324;2023-06-04T05:08:06;98888.06;;;19.07;100.00
9740;BME280;4909;42.680;26.324;2023-06-04T05:10:33;98891.75;;;19.17;100.00
9740;BME280;4909;42.680;26.324;2023-06-04T05:13:02;98886.34;;;19.06;100.00
9740;BME280;4909;42.680;26.324;2023-06-04T05:15:30;98868.81;;;18.77;100.00
9740;BME280;4909;42.680;26.324;2023-06-04T05:17:57;98896.31;;;18.80;100.00
9740;BME280;4909;42.680;26.324;2023-06-04T05:20:26;98882.59;;;18.72;100.00
9740;BME280;4909;42.680;26.324;2023-06-04T05:22:52;98880.94;;;18.58;100.00
9740;BME280;4909;42.680;26.324;2023-06-04T05:25:20;98900.66;;;18.70;100.00
9740;BME280;4909;42.680;26.324;2023-06-04T05:27:47;98903.06;;;18.62;100.00
9740;BME280;4909;42.680;26.324;2023-06-04T05:30:16;98906.53;;;18.39;100.00
9740;BME280;4909;42.680;26.324;2023-06-04T05:32:43;98905.00;;;18.47;100.00
9740;BME280;4909;42.680;26.324;2023-06-04T05:35:09;98910.63;;;18.44;100.00
9740;BME280;4909;42.680;26.324;2023-06-04T05:37:37;98911.25;;;18.48;100.00
9740;BME280;4909;42.680;26.324;2023-06-04T05:40:07;98915.03;;;18.58;100.00
9740;BME280;4909;42.680;26.324;2023-06-04T05:42:34;98906.09;;;18.57;100.00
9740;BME280;4909;42.680;26.324;2023-06-04T05:45:01;98901.97;;;18.64;100.00
9740;BME280;4909;42.680;26.324;2023-06-04T05:47:29;98921.97;;;18.73;100.00
9740;BME280;4909;42.680;26.324;2023-06-04T05:49:56;98921.63;;;18.78;100.00
9740;BME280;4909;42.680;26.324;2023-06-04T05:52:24;98917.50;;;18.85;100.00
9740;BME280;4909;42.680;26.324;2023-06-04T05:54:51;98917.91;;;18.91;100.00
9740;BME280;4909;42.680;26.324;2023-06-04T05:57:17;98935.09;;;19.01;100.00
9740;BME280;4909;42.680;26.324;2023-06-04T05:59:44;98921.41;;;19.28;100.00
9740;BME280;4909;42.680;26.324;2023-06-04T06:02:11;98925.13;;;19.38;100.00
9740;BME280;4909;42.680;26.324;2023-06-04T06:04:40;98933.94;;;19.64;100.00
9740;BME280;4909;42.680;26.324;2023-06-04T06:07:06;98926.00;;;19.74;100.00
9740;BME280;4909;42.680;26.324;2023-06-04T06:09:33;98934.34;;;19.82;100.00
9740;BME280;4909;42.680;26.324;2023-06-04T06:12:01;98902.44;;;19.53;100.00
9740;BME280;4909;42.680;26.324;2023-06-04T06:14:27;98937.78;;;19.84;100.00
9740;BME280;4909;42.680;26.324;2023-06-04T06:16:54;98934.13;;;19.96;100.00
9740;BME280;4909;42.680;26.324;2023-06-04T06:19:21;98942.94;;;19.87;100.00
9740;BME280;4909;42.680;26.324;2023-06-04T06:21:49;98932.47;;;19.71;100.00
9740;BME280;4909;42.680;26.324;2023-06-04T06:24:16;98949.00;;;19.67;100.00
9740;BME280;4909;42.680;26.324;2023-06-04T06:26:43;98942.78;;;19.77;100.00
9740;BME280;4909;42.680;26.324;2023-06-04T06:29:10;98935.88;;;19.62;100.00
9740;BME280;4909;42.680;26.324;2023-06-04T06:31:37;98933.72;;;19.43;100.00
9740;BME280;4909;42.680;26.324;2023-06-04T06:34:03;98948.78;;;19.70;100.00
9740;BME280;4909;42.680;26.324;2023-06-04T06:36:30;98935.06;;;19.73;100.00
9740;BME280;4909;42.680;26.324;2023-06-04T06:38:59;98899.44;;;19.69;100.00
9740;BME280;4909;42.680;26.324;2023-06-04T06:41:26;98955.25;;;20.13;100.00
9740;BME280;4909;42.680;26.324;2023-06-04T06:43:53;98953.06;;;20.18;100.00
9740;BME280;4909;42.680;26.324;2023-06-04T06:46:20;98944.34;;;20.26;100.00
9740;BME280;4909;42.680;26.324;2023-06-04T06:48:46;98965.09;;;20.36;100.00
9740;BME280;4909;42.680;26.324;2023-06-04T06:51:13;98955.00;;;20.16;100.00
9740;BME280;4909;42.680;26.324;2023-06-04T06:53:41;98963.09;;;20.16;100.00
9740;BME280;4909;42.680;26.324;2023-06-04T06:56:09;98972.13;;;20.04;100.00
9740;BME280;4909;42.680;26.324;2023-06-04T06:58:36;98961.25;;;20.17;100.00
9740;BME280;4909;42.680;26.324;2023-06-04T07:01:03;98973.66;;;20.30;100.00
9740;BME280;4909;42.680;26.324;2023-06-04T07:03:31;98973.19;;;20.36;100.00
9740;BME280;4909;42.680;26.324;2023-06-04T07:05:58;98936.03;;;20.18;100.00
9740;BME280;4909;42.680;26.324;2023-06-04T07:08:25;98968.16;;;20.43;100.00
9740;BME280;4909;42.680;26.324;2023-06-04T07:10:53;98965.84;;;20.50;100.00
9740;BME280;4909;42.680;26.324;2023-06-04T07:13:22;98975.38;;;20.54;100.00
9740;BME280;4909;42.680;26.324;2023-06-04T07:15:48;98970.38;;;20.49;100.00
9740;BME280;4909;42.680;26.324;2023-06-04T07:18:15;98983.25;;;20.68;100.00
9740;BME280;4909;42.680;26.324;2023-06-04T07:20:42;98973.31;;;20.79;100.00
9740;BME280;4909;42.680;26.324;2023-06-04T07:23:09;98995.63;;;20.81;100.00
9740;BME280;4909;42.680;26.324;2023-06-04T07:25:36;98992.91;;;20.93;100.00
9740;BME280;4909;42.680;26.324;2023-06-04T07:28:02;98988.22;;;21.06;100.00
9740;BME280;4909;42.680;26.324;2023-06-04T07:30:31;98989.94;;;21.07;100.00
9740;BME280;4909;42.680;26.324;2023-06-04T07:32:58;98994.50;;;21.17;100.00
9740;BME280;4909;42.680;26.324;2023-06-04T07:35:25;98996.97;;;20.98;97.81
9740;BME280;4909;42.680;26.324;2023-06-04T07:37:52;99000.63;;;21.08;98.04
9740;BME280;4909;42.680;26.324;2023-06-04T07:40:19;98992.41;;;21.21;98.84
9740;BME280;4909;42.680;26.324;2023-06-04T07:42:46;99004.75;;;21.46;97.49
9740;BME280;4909;42.680;26.324;2023-06-04T07:45:14;99003.94;;;21.66;97.98
9740;BME280;4909;42.680;26.324;2023-06-04T07:47:42;99009.03;;;21.80;96.03
9740;BME280;4909;42.680;26.324;2023-06-04T07:50:09;99004.84;;;21.87;94.52
9740;BME280;4909;42.680;26.324;2023-06-04T07:52:36;99011.81;;;22.22;92.04
9740;BME280;4909;42.680;26.324;2023-06-04T07:55:03;98993.66;;;22.33;91.03
9740;BME280;4909;42.680;26.324;2023-06-04T07:57:31;99020.88;;;22.62;85.94
9740;BME280;4909;42.680;26.324;2023-06-04T07:59:58;99013.19;;;22.67;86.21
9740;BME280;4909;42.680;26.324;2023-06-04T08:02:25;99024.63;;;22.71;83.88
9740;BME280;4909;42.680;26.324;2023-06-04T08:04:53;99018.88;;;22.64;83.58
9740;BME280;4909;42.680;26.324;2023-06-04T08:07:20;99023.84;;;22.59;88.22
9740;BME280;4909;42.680;26.324;2023-06-04T08:09:47;99024.03;;;22.67;87.50
9740;BME280;4909;42.680;26.324;2023-06-04T08:12:15;99016.09;;;22.45;89.33
9740;BME280;4909;42.680;26.324;2023-06-04T08:14:42;99004.63;;;22.11;89.09
9740;BME280;4909;42.680;26.324;2023-06-04T08:17:09;99021.16;;;22.18;91.92
9740;BME280;4909;42.680;26.324;2023-06-04T08:19:35;99017.69;;;22.27;94.04
9740;BME280;4909;42.680;26.324;2023-06-04T08:22:04;99021.81;;;22.10;91.68
9740;BME280;4909;42.680;26.324;2023-06-04T08:24:31;99029.53;;;22.15;91.98
9740;BME280;4909;42.680;26.324;2023-06-04T08:26:58;99010.47;;;21.95;93.50
9740;BME280;4909;42.680;26.324;2023-06-04T08:29:25;99009.50;;;21.96;92.75
9740;BME280;4909;42.680;26.324;2023-06-04T08:31:52;99030.28;;;22.17;92.40
9740;BME280;4909;42.680;26.324;2023-06-04T08:34:19;99022.34;;;22.25;92.44
9740;BME280;4909;42.680;26.324;2023-06-04T08:36:46;99029.09;;;22.30;92.76
9740;BME280;4909;42.680;26.324;2023-06-04T08:39:14;99034.22;;;22.33;92.07
9740;BME280;4909;42.680;26.324;2023-06-04T08:41:43;99037.38;;;22.38;92.01
9740;BME280;4909;42.680;26.324;2023-06-04T08:44:10;99015.50;;;22.21;92.49
9740;BME280;4909;42.680;26.324;2023-06-04T08:46:38;99027.56;;;22.17;92.82
9740;BME280;4909;42.680;26.324;2023-06-04T08:49:06;99044.31;;;22.10;92.10
9740;BME280;4909;42.680;26.324;2023-06-04T08:51:36;99050.34;;;22.03;92.58
9740;BME280;4909;42.680;26.324;2023-06-04T08:54:04;99043.50;;;21.99;92.92
9740;BME280;4909;42.680;26.324;2023-06-04T08:56:35;99040.31;;;21.94;93.37
9740;BME280;4909;42.680;26.324;2023-06-04T08:59:04;99050.28;;;21.93;94.03
9740;BME280;4909;42.680;26.324;2023-06-04T09:01:32;99059.38;;;21.81;94.29
9740;BME280;4909;42.680;26.324;2023-06-04T09:04:01;99039.91;;;21.66;94.58
9740;BME280;4909;42.680;26.324;2023-06-04T09:06:30;99019.47;;;21.53;95.08
9740;BME280;4909;42.680;26.324;2023-06-04T09:09:00;99042.69;;;21.76;95.14
9740;BME280;4909;42.680;26.324;2023-06-04T09:11:35;99052.97;;;21.93;94.75
9740;BME280;4909;42.680;26.324;2023-06-04T09:14:06;99056.88;;;22.00;94.32
9740;BME280;4909;42.680;26.324;2023-06-04T09:16:42;99054.84;;;22.14;93.58
9740;BME280;4909;42.680;26.324;2023-06-04T09:19:09;99020.97;;;22.09;92.52
9740;BME280;4909;42.680;26.324;2023-06-04T09:21:46;99017.41;;;22.09;91.04
9740;BME280;4909;42.680;26.324;2023-06-04T09:24:13;99048.00;;;22.30;91.82
9740;BME280;4909;42.680;26.324;2023-06-04T09:26:41;99046.06;;;22.42;92.01
9740;BME280;4909;42.680;26.324;2023-06-04T09:29:08;99045.31;;;22.51;91.43
9740;BME280;4909;42.680;26.324;2023-06-04T09:31:35;99056.78;;;22.64;90.32
9740;BME280;4909;42.680;26.324;2023-06-04T09:34:04;99057.19;;;22.60;89.96
9740;BME280;4909;42.680;26.324;2023-06-04T09:36:31;99047.81;;;22.43;90.32
9740;BME280;4909;42.680;26.324;2023-06-04T09:38:58;99047.94;;;22.41;90.81
9740;BME280;4909;42.680;26.324;2023-06-04T09:41:25;99055.69;;;22.46;91.69
9740;BME280;4909;42.680;26.324;2023-06-04T09:44:00;99012.50;;;22.03;85.33
9740;BME280;4909;42.680;26.324;2023-06-04T09:46:29;99055.84;;;22.13;87.39
9740;BME280;4909;42.680;26.324;2023-06-04T09:49:00;99024.84;;;21.85;87.58
9740;BME280;4909;42.680;26.324;2023-06-04T09:51:28;99056.84;;;22.12;90.09
9740;BME280;4909;42.680;26.324;2023-06-04T09:53:57;99068.56;;;22.01;89.12
9740;BME280;4909;42.680;26.324;2023-06-04T09:56:24;99063.47;;;22.07;88.30
9740;BME280;4909;42.680;26.324;2023-06-04T09:58:55;99060.06;;;22.05;89.82
9740;BME280;4909;42.680;26.324;2023-06-04T10:01:25;99053.94;;;22.24;90.46
9740;BME280;4909;42.680;26.324;2023-06-04T10:03:53;99063.44;;;22.39;90.14
9740;BME280;4909;42.680;26.324;2023-06-04T10:06:22;99053.84;;;22.56;87.51
9740;BME280;4909;42.680;26.324;2023-06-04T10:08:50;99059.63;;;22.83;85.93
9740;BME280;4909;42.680;26.324;2023-06-04T10:11:20;99062.94;;;22.96;83.74
9740;BME280;4909;42.680;26.324;2023-06-04T10:13:51;99056.00;;;23.04;85.16
9740;BME280;4909;42.680;26.324;2023-06-04T10:16:21;99056.13;;;22.72;82.19
9740;BME280;4909;42.680;26.324;2023-06-04T10:18:52;99042.31;;;22.54;82.39
9740;BME280;4909;42.680;26.324;2023-06-04T10:21:20;99056.84;;;22.53;80.46
9740;BME280;4909;42.680;26.324;2023-06-04T10:23:48;99058.88;;;22.81;81.71
9740;BME280;4909;42.680;26.324;2023-06-04T10:26:15;99043.25;;;22.64;78.97
9740;BME280;4909;42.680;26.324;2023-06-04T10:28:43;99066.81;;;22.73;80.28
9740;BME280;4909;42.680;26.324;2023-06-04T10:31:09;99065.72;;;22.85;79.17
9740;BME280;4909;42.680;26.324;2023-06-04T10:33:37;99043.13;;;22.96;79.59
9740;BME280;4909;42.680;26.324;2023-06-04T10:36:17;99060.16;;;23.08;77.32
9740;BME280;4909;42.680;26.324;2023-06-04T10:38:46;99058.16;;;23.10;80.68
9740;BME280;4909;42.680;26.324;2023-06-04T10:41:14;99051.28;;;23.06;82.24
9740;BME280;4909;42.680;26.324;2023-06-04T10:43:42;99058.59;;;23.15;82.50
9740;BME280;4909;42.680;26.324;2023-06-04T10:46:11;99046.81;;;23.25;82.68
9740;BME280;4909;42.680;26.324;2023-06-04T10:48:45;99028.41;;;23.29;82.34
9740;BME280;4909;42.680;26.324;2023-06-04T10:51:12;99034.94;;;23.47;81.33
9740;BME280;4909;42.680;26.324;2023-06-04T10:53:40;99038.09;;;23.62;81.48
9740;BME280;4909;42.680;26.324;2023-06-04T10:56:07;99038.81;;;23.73;80.92
9740;BME280;4909;42.680;26.324;2023-06-04T10:58:34;99038.81;;;23.83;80.57
9740;BME280;4909;42.680;26.324;2023-06-04T11:01:01;99021.13;;;23.89;80.21
9740;BME280;4909;42.680;26.324;2023-06-04T11:03:35;99027.81;;;24.13;81.58
9740;BME280;4909;42.680;26.324;2023-06-04T11:06:02;99028.69;;;24.14;79.83
9740;BME280;4909;42.680;26.324;2023-06-04T11:08:29;99035.84;;;24.24;78.73
9740;BME280;4909;42.680;26.324;2023-06-04T11:10:58;98995.28;;;24.13;81.48
9740;BME280;4909;42.680;26.324;2023-06-04T11:13:25;99039.22;;;24.46;80.84
9740;BME280;4909;42.680;26.324;2023-06-04T11:15:52;99034.38;;;24.49;78.50
9740;BME280;4909;42.680;26.324;2023-06-04T11:18:20;99037.22;;;24.57;78.02
9740;BME280;4909;42.680;26.324;2023-06-04T11:20:48;99035.22;;;24.50;74.41
9740;BME280;4909;42.680;26.324;2023-06-04T11:23:16;99033.69;;;24.28;75.29
9740;BME280;4909;42.680;26.324;2023-06-04T11:25:43;99004.72;;;23.80;74.24
9740;BME280;4909;42.680;26.324;2023-06-04T11:28:15;99031.41;;;23.85;74.05
9740;BME280;4909;42.680;26.324;2023-06-04T11:30:43;99034.53;;;23.71;74.66
9740;BME280;4909;42.680;26.324;2023-06-04T11:33:10;99036.31;;;23.42;75.35
9740;BME280;4909;42.680;26.324;2023-06-04T11:35:42;99026.06;;;23.05;77.31
9740;BME280;4909;42.680;26.324;2023-06-04T11:38:09;99028.69;;;22.86;77.70
9740;BME280;4909;42.680;26.324;2023-06-04T11:40:36;99027.31;;;22.91;79.38
9740;BME280;4909;42.680;26.324;2023-06-04T11:43:03;99026.44;;;22.91;79.44
9740;BME280;4909;42.680;26.324;2023-06-04T11:45:31;99018.88;;;22.85;80.10
9740;BME280;4909;42.680;26.324;2023-06-04T11:47:58;99025.09;;;22.76;78.66
9740;BME280;4909;42.680;26.324;2023-06-04T11:50:27;99013.56;;;22.74;78.89
9740;BME280;4909;42.680;26.324;2023-06-04T11:52:54;99019.75;;;22.65;78.53
9740;BME280;4909;42.680;26.324;2023-06-04T11:55:22;99013.16;;;22.78;79.56
9740;BME280;4909;42.680;26.324;2023-06-04T11:57:50;99029.91;;;22.72;79.41
9740;BME280;4909;42.680;26.324;2023-06-04T12:00:18;98994.53;;;22.64;78.99
9740;BME280;4909;42.680;26.324;2023-06-04T12:02:51;99015.53;;;23.02;79.09
9740;BME280;4909;42.680;26.324;2023-06-04T12:05:20;99010.59;;;23.17;78.72
9740;BME280;4909;42.680;26.324;2023-06-04T12:07:48;98994.34;;;23.17;78.62
9740;BME280;4909;42.680;26.324;2023-06-04T12:10:17;99002.22;;;23.39;79.55
9740;BME280;4909;42.680;26.324;2023-06-04T12:12:44;99007.19;;;23.44;77.79
9740;BME280;4909;42.680;26.324;2023-06-04T12:15:12;99002.44;;;23.57;75.25
9740;BME280;4909;42.680;26.324;2023-06-04T12:17:50;99008.72;;;23.57;76.67
9740;BME280;4909;42.680;26.324;2023-06-04T12:20:17;99011.84;;;23.62;77.34
9740;BME280;4909;42.680;26.324;2023-06-04T12:22:45;99014.97;;;23.58;76.92
9740;BME280;4909;42.680;26.324;2023-06-04T12:25:22;99015.53;;;23.52;77.69
9740;BME280;4909;42.680;26.324;2023-06-04T12:27:50;99003.63;;;23.43;78.74
9740;BME280;4909;42.680;26.324;2023-06-04T12:30:16;99011.84;;;23.53;79.02
9740;BME280;4909;42.680;26.324;2023-06-04T12:32:44;99017.84;;;23.56;78.70
9740;BME280;4909;42.680;26.324;2023-06-04T12:35:12;99007.19;;;23.44;79.02
9740;BME280;4909;42.680;26.324;2023-06-04T12:37:39;99011.75;;;23.43;81.03
9740;BME280;4909;42.680;26.324;2023-06-04T12:40:07;99020.66;;;23.45;78.83
9740;BME280;4909;42.680;26.324;2023-06-04T12:42:34;98999.50;;;23.39;76.70
9740;BME280;4909;42.680;26.324;2023-06-04T12:45:01;99017.84;;;23.56;77.09
9740;BME280;4909;42.680;26.324;2023-06-04T12:47:27;99024.38;;;23.63;77.03
9740;BME280;4909;42.680;26.324;2023-06-04T12:49:54;99017.41;;;23.51;76.89
9740;BME280;4909;42.680;26.324;2023-06-04T12:52:22;99041.22;;;23.57;72.15
9740;BME280;4909;42.680;26.324;2023-06-04T12:54:49;99037.91;;;23.54;71.21
9740;BME280;4909;42.680;26.324;2023-06-04T12:57:16;99028.88;;;23.44;75.00
9740;BME280;4909;42.680;26.324;2023-06-04T12:59:42;99034.63;;;23.50;75.94
9740;BME280;4909;42.680;26.324;2023-06-04T13:02:09;99020.97;;;23.52;73.82
9740;BME280;4909;42.680;26.324;2023-06-04T13:04:36;99031.50;;;23.55;76.01
9740;BME280;4909;42.680;26.324;2023-06-04T13:07:03;99030.03;;;23.41;76.89
9740;BME280;4909;42.680;26.324;2023-06-04T13:09:31;99020.97;;;23.12;75.71